Great Resource — VRFZ5 — position and weather

sailwx.info

Track history (hours):
 
Tides and Currents Weather Stations Pressure Air Temp Water Temp Dewpoint Dewpoint Depression Visibility Wind Speed Wind Dir Waves Ship Positions

Great Resource

Last reported at 2018-Apr-29 22:21 UTC. Time now 2018-May-22 02:26 UTC.
Position N 27°33' W 015°14'.
Warning: this ship's position is 22 days out of date.

Length 178 m; draft 10.3 m.

Type: Cargo ship. MMSI: 477738100.

Date/timePositionNaut miles runAvg speedWind from/ knotsBaromVisibWave heightAir tempDewpointWater temp
2018-Apr-29 22:21N 27°33' W 015°14'412.7
2018-Apr-29 22:00N 27°37' W 015°13'612.7
2018-Apr-29 21:30N 27°44' W 015°13'612.6
2018-Apr-29 21:00N 27°50' W 015°12'612.4
2018-Apr-29 20:30N 27°56' W 015°13'611.9
2018-Apr-29 20:00N 28°02' W 015°15'611.7
2018-Apr-29 19:30N 28°05' W 015°20'4 7.7
2018-Apr-29 19:00N 28°07' W 015°24'0 0.4
2018-Apr-29 18:30N 28°07' W 015°24'0 0.1
2018-Apr-29 18:00N 28°07' W 015°24'0 0.0
2018-Apr-29 17:30N 28°07' W 015°24'0 0.0
2018-Apr-29 17:00N 28°07' W 015°24'0 0.0
2018-Apr-29 16:30N 28°07' W 015°24'0 0.0
2018-Apr-29 16:00N 28°07' W 015°24'0 0.0
2018-Apr-29 15:30N 28°07' W 015°24'0 0.0
2018-Apr-29 15:00N 28°07' W 015°24'0 0.0
2018-Apr-29 14:30N 28°07' W 015°24'0 0.7
2018-Apr-29 14:00N 28°07' W 015°24'1 2.2
2018-Apr-29 13:29N 28°07' W 015°23'3 6.3
2018-Apr-29 13:00N 28°10' W 015°21'2 4.8
2018-Apr-29 12:30N 28°11' W 015°19'611.7
2018-Apr-29 11:59N 28°16' W 015°14'612.2
2018-Apr-29 11:30N 28°20' W 015°10'612.3
2018-Apr-29 11:00N 28°24' W 015°05'612.4
2018-Apr-29 10:30N 28°29' W 015°00'612.4
2018-Apr-29 10:00N 28°34' W 014°56'612.4
2018-Apr-29 09:29N 28°38' W 014°51'612.5
2018-Apr-29 09:00N 28°43' W 014°46'  
Track history (hours):
 
Tides and Currents Weather Stations Pressure Air Temp Water Temp Dewpoint Dewpoint Depression Visibility Wind Speed Wind Dir Waves Ship Positions

Great Resource

Last reported at 2018-Apr-29 22:21 UTC. Time now 2018-May-22 02:26 UTC.
Position N 27°33' W 015°14'.
Warning: this ship's position is 22 days out of date.

Length 178 m; draft 10.3 m.

Type: Cargo ship. MMSI: 477738100.

Date/timePositionNaut miles runAvg speedWind from/ knotsBaromVisibWave heightAir tempDewpointWater temp
2018-Apr-29 22:21N 27°33' W 015°14'412.7
2018-Apr-29 22:00N 27°37' W 015°13'612.7
2018-Apr-29 21:30N 27°44' W 015°13'612.6
2018-Apr-29 21:00N 27°50' W 015°12'612.4
2018-Apr-29 20:30N 27°56' W 015°13'611.9
2018-Apr-29 20:00N 28°02' W 015°15'611.7
2018-Apr-29 19:30N 28°05' W 015°20'4 7.7
2018-Apr-29 19:00N 28°07' W 015°24'0 0.4
2018-Apr-29 18:30N 28°07' W 015°24'0 0.1
2018-Apr-29 18:00N 28°07' W 015°24'0 0.0
2018-Apr-29 17:30N 28°07' W 015°24'0 0.0
2018-Apr-29 17:00N 28°07' W 015°24'0 0.0
2018-Apr-29 16:30N 28°07' W 015°24'0 0.0
2018-Apr-29 16:00N 28°07' W 015°24'0 0.0
2018-Apr-29 15:30N 28°07' W 015°24'0 0.0
2018-Apr-29 15:00N 28°07' W 015°24'0 0.0
2018-Apr-29 14:30N 28°07' W 015°24'0 0.7
2018-Apr-29 14:00N 28°07' W 015°24'1 2.2
2018-Apr-29 13:29N 28°07' W 015°23'3 6.3
2018-Apr-29 13:00N 28°10' W 015°21'2 4.8
2018-Apr-29 12:30N 28°11' W 015°19'611.7
2018-Apr-29 11:59N 28°16' W 015°14'612.2
2018-Apr-29 11:30N 28°20' W 015°10'612.3
2018-Apr-29 11:00N 28°24' W 015°05'612.4
2018-Apr-29 10:30N 28°29' W 015°00'612.4
2018-Apr-29 10:00N 28°34' W 014°56'612.4
2018-Apr-29 09:29N 28°38' W 014°51'612.5
2018-Apr-29 09:00N 28°43' W 014°46'  

Dump ship's entire track history